Time;durP1;ratioP1;P1;durP2;ratioP2;P2;SDS_P1;SDS_P2;PMS_P1;PMS_P2;Temp;Humidity;BMP_temperature;BMP_pressure;BME280_temperature;BME280_humidity;BME280_pressure;Samples;Min_cycle;Max_cycle;Signal;HPM_P1;HPM_P2
2021/11/16 00:02:19;;;;;;;72.82;32.20;;;;;;;;;;5090613;28;20538;-64
2021/11/16 00:04:47;;;;;;;63.50;30.42;;;;;;;;;;5117174;28;20035;-64
2021/11/16 00:07:13;;;;;;;;;;;;;;;;;;5125149;28;20048;-64
2021/11/16 00:09:39;;;;;;;65.72;31.15;;;;;;;;;;5124926;28;19926;-64
2021/11/16 00:12:05;;;;;;;68.50;32.58;;;;;;;;;;5115896;28;20051;-64
2021/11/16 00:14:31;;;;;;;67.32;32.83;;;;;;;;;;5126865;28;20073;-63
2021/11/16 00:16:58;;;;;;;62.85;29.30;;;;;;;;;;5116297;28;20071;-64
2021/11/16 00:19:26;;;;;;;73.63;32.10;;;;;;;;;;5127269;28;20075;-64
2021/11/16 00:21:52;;;;;;;73.55;32.67;;;;;;;;;;5106415;28;20121;-64
2021/11/16 00:24:22;;;;;;;67.00;31.50;;;;;;;;;;5101147;28;20055;-64
2021/11/16 00:26:48;;;;;;;75.10;32.20;;;;;;;;;;5101949;28;20069;-64
2021/11/16 00:29:15;;;;;;;70.10;33.13;;;;;;;;;;5120291;28;20051;-64
2021/11/16 00:31:41;;;;;;;71.43;32.45;;;;;;;;;;5107776;28;20046;-64
2021/11/16 00:34:07;;;;;;;74.88;32.33;;;;;;;;;;5116266;28;20059;-63
2021/11/16 00:36:33;;;;;;;69.45;31.98;;;;;;;;;;5115684;28;20051;-63
2021/11/16 00:39:00;;;;;;;71.13;34.65;;;;;;;;;;5094525;28;20040;-63
2021/11/16 00:41:26;;;;;;;72.38;33.67;;;;;;;;;;5124072;28;20143;-63
2021/11/16 00:43:52;;;;;;;75.82;31.98;;;;;;;;;;5117458;28;20047;-63
2021/11/16 00:46:19;;;;;;;68.32;32.42;;;;;;;;;;5126301;28;20090;-62
2021/11/16 00:48:45;;;;;;;76.15;33.92;;;;;;;;;;5093500;28;20055;-63
2021/11/16 00:51:12;;;;;;;68.30;32.92;;;;;;;;;;5126083;28;20452;-63
2021/11/16 00:53:39;;;;;;;76.13;34.42;;;;;;;;;;5126006;28;20043;-63
2021/11/16 00:56:06;;;;;;;79.40;34.88;;;;;;;;;;5125422;28;20099;-63
2021/11/16 00:58:33;;;;;;;67.65;31.73;;;;;;;;;;5120494;28;20105;-63
2021/11/16 01:01:00;;;;;;;67.00;30.17;;;;;;;;;;5126104;28;20070;-63
2021/11/16 01:03:26;;;;;;;76.45;34.53;;;;;;;;;;5107867;28;20052;-62
2021/11/16 01:05:54;;;;;;;65.47;30.08;;;;;;;;;;5093154;28;20044;-62
2021/11/16 01:08:20;;;;;;;79.22;34.45;;;;;;;;;;5125756;28;20062;-63
2021/11/16 01:10:46;;;;;;;75.00;35.47;;;;;;;;;;5125043;28;20074;-63
2021/11/16 01:13:12;;;;;;;72.95;36.25;;;;;;;;;;5121926;28;20047;-62
2021/11/16 01:15:40;;;;;;;72.90;34.25;;;;;;;;;;5121407;28;20122;-63
2021/11/16 01:18:07;;;;;;;77.35;34.58;;;;;;;;;;5104496;28;20062;-63
2021/11/16 01:20:34;;;;;;;70.10;32.63;;;;;;;;;;5125443;28;20054;-63
2021/11/16 01:23:01;;;;;;;71.97;33.47;;;;;;;;;;5123301;28;20054;-63
2021/11/16 01:25:27;;;;;;;75.30;36.00;;;;;;;;;;5124776;28;20078;-63
2021/11/16 01:28:01;;;;;;;78.10;35.10;;;;;;;;;;5125335;28;20055;-63
2021/11/16 01:30:30;;;;;;;56.42;26.33;;;;;;;;;;5099515;28;20044;-64
2021/11/16 01:33:06;;;;;;;73.50;34.03;;;;;;;;;;5119303;28;20078;-63
2021/11/16 01:35:35;;;;;;;79.95;34.00;;;;;;;;;;5125013;28;20048;-63
2021/11/16 01:38:02;;;;;;;84.80;36.90;;;;;;;;;;5120749;28;20067;-63
2021/11/16 01:40:28;;;;;;;81.57;35.40;;;;;;;;;;5104200;28;20036;-63
2021/11/16 01:42:54;;;;;;;75.43;34.33;;;;;;;;;;5117552;28;20054;-64
2021/11/16 01:45:21;;;;;;;79.88;35.92;;;;;;;;;;5125303;28;20036;-63
2021/11/16 01:47:47;;;;;;;71.00;32.80;;;;;;;;;;5124953;28;20103;-64
2021/11/16 01:50:15;;;;;;;76.50;33.10;;;;;;;;;;5106368;28;20391;-63
2021/11/16 01:52:42;;;;;;;73.32;34.65;;;;;;;;;;5081139;28;20077;-64
2021/11/16 01:55:09;;;;;;;79.85;34.33;;;;;;;;;;5086251;28;20051;-63
2021/11/16 01:57:35;;;;;;;74.10;34.03;;;;;;;;;;5124978;28;20051;-63
2021/11/16 02:00:03;;;;;;;75.25;34.30;;;;;;;;;;5106942;28;20049;-63
2021/11/16 02:02:29;;;;;;;;;;;;;;;;;;5110966;28;20114;-63
2021/11/16 02:04:55;;;;;;;79.45;35.17;;;;;;;;;;5106263;28;19920;-63
2021/11/16 02:07:21;;;;;;;78.53;36.05;;;;;;;;;;5124800;28;20071;-63
2021/11/16 02:09:47;;;;;;;87.63;37.97;;;;;;;;;;5085731;28;20077;-63
2021/11/16 02:12:13;;;;;;;77.93;35.15;;;;;;;;;;5105949;28;20170;-63
2021/11/16 02:14:40;;;;;;;81.97;35.15;;;;;;;;;;5117216;28;20043;-63
2021/11/16 02:17:06;;;;;;;77.38;34.20;;;;;;;;;;5118396;28;20043;-63
2021/11/16 02:19:32;;;;;;;81.13;36.10;;;;;;;;;;5104906;28;20040;-63
2021/11/16 02:21:58;;;;;;;81.80;36.10;;;;;;;;;;5124136;28;20051;-63
2021/11/16 02:24:24;;;;;;;80.13;35.25;;;;;;;;;;5124280;28;20044;-63
2021/11/16 02:26:50;;;;;;;84.68;36.88;;;;;;;;;;5124565;28;20040;-63
2021/11/16 02:29:17;;;;;;;89.43;38.10;;;;;;;;;;5113906;28;20040;-63
2021/11/16 02:31:46;;;;;;;83.40;36.00;;;;;;;;;;5120909;28;20043;-64
2021/11/16 02:34:12;;;;;;;83.32;32.47;;;;;;;;;;5125359;28;20054;-63
2021/11/16 02:36:41;;;;;;;83.95;36.63;;;;;;;;;;5126628;28;20047;-63
2021/11/16 02:39:08;;;;;;;75.13;33.40;;;;;;;;;;5115945;28;20039;-63
2021/11/16 02:41:35;;;;;;;84.85;36.85;;;;;;;;;;5128875;28;20043;-63
2021/11/16 02:44:02;;;;;;;79.15;36.72;;;;;;;;;;5114220;28;20036;-63
2021/11/16 02:46:29;;;;;;;90.15;38.15;;;;;;;;;;5128554;28;20047;-63
2021/11/16 02:48:55;;;;;;;78.50;36.20;;;;;;;;;;5128013;28;20076;-63
2021/11/16 02:51:21;;;;;;;89.25;37.38;;;;;;;;;;5110112;28;20103;-63
2021/11/16 02:53:48;;;;;;;83.97;38.28;;;;;;;;;;5114110;28;20067;-63
2021/11/16 02:56:14;;;;;;;90.35;37.65;;;;;;;;;;5127715;28;20048;-63
2021/11/16 02:58:40;;;;;;;83.43;35.67;;;;;;;;;;5110009;28;20043;-63
2021/11/16 03:01:17;;;;;;;80.75;35.13;;;;;;;;;;5128148;28;20043;-63
2021/11/16 03:03:43;;;;;;;85.07;37.08;;;;;;;;;;5110027;28;20050;-63
2021/11/16 03:06:10;;;;;;;73.82;34.58;;;;;;;;;;5120688;28;20048;-63
2021/11/16 03:08:36;;;;;;;81.05;35.33;;;;;;;;;;5100996;28;20970;-63
2021/11/16 03:11:06;;;;;;;87.22;34.58;;;;;;;;;;5127404;28;20075;-63
2021/11/16 03:13:36;;;;;;;85.85;36.22;;;;;;;;;;5128051;28;20047;-63
2021/11/16 03:16:04;;;;;;;81.72;35.38;;;;;;;;;;5124352;28;20048;-63
2021/11/16 03:18:30;;;;;;;80.28;37.78;;;;;;;;;;5100448;28;20048;-62
2021/11/16 03:20:56;;;;;;;80.80;36.63;;;;;;;;;;5120932;28;20492;-63
2021/11/16 03:23:24;;;;;;;92.78;39.42;;;;;;;;;;5120909;28;20109;-62
2021/11/16 03:25:53;;;;;;;89.10;40.67;;;;;;;;;;5120754;28;20101;-62
2021/11/16 03:28:21;;;;;;;84.75;37.05;;;;;;;;;;5112915;28;20042;-62
2021/11/16 03:30:50;;;;;;;85.13;37.90;;;;;;;;;;5127703;28;20107;-62
2021/11/16 03:33:17;;;;;;;82.35;35.08;;;;;;;;;;5127524;28;20044;-62
2021/11/16 03:35:44;;;;;;;89.30;38.03;;;;;;;;;;5099893;28;20111;-62
2021/11/16 03:38:10;;;;;;;81.88;38.13;;;;;;;;;;5109173;28;20040;-62
2021/11/16 03:40:37;;;;;;;85.70;36.67;;;;;;;;;;5127299;28;20078;-62
2021/11/16 03:43:04;;;;;;;88.03;37.22;;;;;;;;;;5127313;28;20193;-62
2021/11/16 03:45:30;;;;;;;89.00;36.88;;;;;;;;;;5126729;28;20040;-62
2021/11/16 03:47:57;;;;;;;82.50;35.70;;;;;;;;;;5127335;28;20063;-63
2021/11/16 03:50:25;;;;;;;88.50;35.83;;;;;;;;;;5104552;28;20040;-63
2021/11/16 03:52:56;;;;;;;;;;;;;;;;;;5081797;28;20048;-63
2021/11/16 03:55:23;;;;;;;95.35;39.17;;;;;;;;;;5124448;28;19919;-62
2021/11/16 03:57:54;;;;;;;89.22;38.00;;;;;;;;;;5127209;28;20051;-62
2021/11/16 04:00:21;;;;;;;90.70;38.58;;;;;;;;;;5127048;28;20293;-62
2021/11/16 04:02:48;;;;;;;82.97;33.95;;;;;;;;;;5127233;28;20047;-62
2021/11/16 04:05:14;;;;;;;92.65;37.28;;;;;;;;;;5107867;28;20079;-63
2021/11/16 04:07:40;;;;;;;88.90;37.22;;;;;;;;;;5108700;28;20058;-63
2021/11/16 04:10:12;;;;;;;93.78;36.65;;;;;;;;;;5126455;28;20427;-63
2021/11/16 04:12:43;;;;;;;89.28;37.35;;;;;;;;;;5112325;28;20598;-63
2021/11/16 04:15:10;;;;;;;94.10;37.83;;;;;;;;;;5126901;28;20040;-63
2021/11/16 04:17:39;;;;;;;91.57;38.20;;;;;;;;;;5093411;28;20036;-63
2021/11/16 04:20:10;;;;;;;90.65;38.05;;;;;;;;;;5117617;28;20101;-63
2021/11/16 04:22:36;;;;;;;89.72;38.15;;;;;;;;;;5108280;28;20038;-63
2021/11/16 04:25:04;;;;;;;92.65;38.85;;;;;;;;;;5097814;28;20078;-63
2021/11/16 04:27:30;;;;;;;;;;;;;;;;;;5108658;28;20047;-63
2021/11/16 04:29:56;;;;;;;89.82;37.58;;;;;;;;;;5126543;28;19919;-63
2021/11/16 04:32:22;;;;;;;90.18;37.35;;;;;;;;;;5117031;28;20412;-63
2021/11/16 04:34:48;;;;;;;91.82;40.63;;;;;;;;;;5104088;28;20055;-63
2021/11/16 04:37:14;;;;;;;89.28;39.13;;;;;;;;;;5108159;28;20511;-63
2021/11/16 04:39:41;;;;;;;94.60;38.53;;;;;;;;;;5126043;28;20379;-62
2021/11/16 04:42:07;;;;;;;93.35;37.78;;;;;;;;;;5126395;28;20036;-62
2021/11/16 04:44:33;;;;;;;92.70;37.47;;;;;;;;;;5126340;28;20054;-62
2021/11/16 04:47:00;;;;;;;103.53;39.25;;;;;;;;;;5105738;28;20040;-63
2021/11/16 04:49:38;;;;;;;95.00;39.42;;;;;;;;;;5125733;28;20472;-63
2021/11/16 04:52:14;;;;;;;91.85;39.17;;;;;;;;;;5121569;28;20349;-62
2021/11/16 05:02:41;;;;;;;94.63;37.80;;;;;;;;;;5123372;28;20044;-62
2021/11/16 05:05:08;;;;;;;96.10;39.03;;;;;;;;;;5125051;28;20047;-62
2021/11/16 05:07:35;;;;;;;93.03;36.00;;;;;;;;;;5111709;28;20123;-63
2021/11/16 05:10:03;;;;;;;92.10;38.42;;;;;;;;;;5125010;28;20528;-63
2021/11/16 05:12:31;;;;;;;96.88;38.22;;;;;;;;;;5107890;28;20065;-63
2021/11/16 05:14:57;;;;;;;;;;;;;;;;;;5126100;28;20563;-63
2021/11/16 05:17:23;;;;;;;91.57;36.55;;;;;;;;;;5108495;28;19920;-63
2021/11/16 05:19:49;;;;;;;92.15;39.47;;;;;;;;;;5108781;28;20043;-63
2021/11/16 05:22:16;;;;;;;95.38;37.20;;;;;;;;;;5120167;28;20048;-63
2021/11/16 05:24:42;;;;;;;90.95;36.20;;;;;;;;;;5124985;28;20043;-63
2021/11/16 05:27:11;;;;;;;94.25;37.53;;;;;;;;;;5103274;28;20051;-63
2021/11/16 05:29:37;;;;;;;93.05;36.22;;;;;;;;;;5092339;28;20121;-63
2021/11/16 05:32:03;;;;;;;82.15;34.10;;;;;;;;;;5125681;28;20071;-63
2021/11/16 05:34:29;;;;;;;99.78;38.15;;;;;;;;;;5125271;28;20498;-63
2021/11/16 05:36:55;;;;;;;85.53;36.55;;;;;;;;;;5116431;28;20039;-63
2021/11/16 05:39:22;;;;;;;91.25;37.13;;;;;;;;;;5112959;28;20044;-63
2021/11/16 05:41:48;;;;;;;93.43;37.40;;;;;;;;;;5108506;28;20054;-63
2021/11/16 05:44:14;;;;;;;95.80;37.80;;;;;;;;;;5125091;28;20099;-62
2021/11/16 05:46:40;;;;;;;90.85;33.20;;;;;;;;;;5110404;28;20099;-62
2021/11/16 05:49:06;;;;;;;93.47;36.95;;;;;;;;;;5124909;28;20127;-63
2021/11/16 05:51:33;;;;;;;102.20;37.40;;;;;;;;;;5125095;28;20056;-63
2021/11/16 05:54:03;;;;;;;103.18;37.40;;;;;;;;;;5105086;28;20044;-63
2021/11/16 05:56:33;;;;;;;102.78;37.75;;;;;;;;;;5116932;28;20039;-63
2021/11/16 05:58:59;;;;;;;99.90;35.90;;;;;;;;;;5124615;28;20036;-63
2021/11/16 06:01:27;;;;;;;96.20;38.65;;;;;;;;;;5122679;28;20087;-63
2021/11/16 06:03:53;;;;;;;99.05;39.70;;;;;;;;;;5118524;28;20036;-63
2021/11/16 06:06:23;;;;;;;99.55;37.45;;;;;;;;;;5096201;28;20524;-63
2021/11/16 06:08:50;;;;;;;85.65;35.72;;;;;;;;;;5122841;28;20035;-63
2021/11/16 06:11:20;;;;;;;96.65;37.25;;;;;;;;;;5112277;28;20054;-63
2021/11/16 06:13:46;;;;;;;97.88;36.10;;;;;;;;;;5110164;28;20107;-63
2021/11/16 06:16:13;;;;;;;101.68;37.15;;;;;;;;;;5117197;28;20047;-63
2021/11/16 06:18:39;;;;;;;99.07;35.95;;;;;;;;;;5106480;28;20061;-63
2021/11/16 06:21:05;;;;;;;98.75;38.17;;;;;;;;;;5105673;28;20066;-63
2021/11/16 06:23:33;;;;;;;90.72;34.35;;;;;;;;;;5125310;28;20036;-63
2021/11/16 06:25:59;;;;;;;;;;;;;;;;;;5123981;28;20035;-63
2021/11/16 06:28:25;;;;;;;97.38;35.20;;;;;;;;;;5106212;28;19962;-63
2021/11/16 06:30:51;;;;;;;89.30;32.40;;;;;;;;;;5124407;28;20107;-63
2021/11/16 06:33:24;;;;;;;88.75;33.35;;;;;;;;;;5099852;28;20043;-63
2021/11/16 06:35:51;;;;;;;88.75;35.58;;;;;;;;;;5113607;28;20059;-63
2021/11/16 06:38:17;;;;;;;93.00;34.38;;;;;;;;;;5121665;28;20044;-63
2021/11/16 06:40:50;;;;;;;91.30;33.83;;;;;;;;;;5111860;28;20050;-63
2021/11/16 06:43:20;;;;;;;85.97;33.45;;;;;;;;;;5112917;28;20027;-63
2021/11/16 06:45:49;;;;;;;97.32;35.78;;;;;;;;;;5117434;28;20042;-63
2021/11/16 06:48:16;;;;;;;94.45;35.17;;;;;;;;;;5123143;28;20480;-63
2021/11/16 06:50:42;;;;;;;93.03;34.28;;;;;;;;;;5110794;28;20122;-63
2021/11/16 06:53:08;;;;;;;94.85;34.53;;;;;;;;;;5079369;28;20047;-63
2021/11/16 06:55:34;;;;;;;90.80;34.08;;;;;;;;;;5123416;28;20043;-62
2021/11/16 06:58:00;;;;;;;99.20;37.67;;;;;;;;;;5103388;28;20055;-63
2021/11/16 07:00:26;;;;;;;90.18;34.80;;;;;;;;;;5106458;28;20039;-62
2021/11/16 07:02:57;;;;;;;84.90;33.78;;;;;;;;;;5124221;28;20058;-63
2021/11/16 07:05:25;;;;;;;96.10;35.20;;;;;;;;;;5124422;28;20053;-63
2021/11/16 07:07:51;;;;;;;89.25;33.90;;;;;;;;;;5123945;28;20047;-63
2021/11/16 07:10:22;;;;;;;92.78;34.33;;;;;;;;;;5090522;28;20040;-63
2021/11/16 07:12:48;;;;;;;92.13;35.00;;;;;;;;;;5111044;28;20095;-62
2021/11/16 07:15:15;;;;;;;88.68;35.17;;;;;;;;;;5111456;28;20040;-63
2021/11/16 07:17:41;;;;;;;87.13;34.25;;;;;;;;;;5116989;28;20036;-63
2021/11/16 07:20:09;;;;;;;87.82;34.08;;;;;;;;;;5109316;28;20463;-62
2021/11/16 07:22:37;;;;;;;85.65;33.38;;;;;;;;;;5122685;28;20148;-62
2021/11/16 07:25:05;;;;;;;90.75;32.95;;;;;;;;;;5117005;28;20044;-63
2021/11/16 07:27:37;;;;;;;82.18;32.38;;;;;;;;;;5119253;28;20107;-63
2021/11/16 07:30:04;;;;;;;85.85;32.47;;;;;;;;;;5126855;28;20071;-63
2021/11/16 07:32:33;;;;;;;82.32;31.90;;;;;;;;;;5109253;28;20047;-62
2021/11/16 07:35:02;;;;;;;81.70;31.05;;;;;;;;;;5109086;28;20047;-63
2021/11/16 07:37:30;;;;;;;89.05;33.17;;;;;;;;;;5127612;28;20048;-63
2021/11/16 07:40:05;;;;;;;85.10;33.15;;;;;;;;;;5111871;28;20040;-63
2021/11/16 07:42:33;;;;;;;84.88;31.83;;;;;;;;;;5126105;28;20043;-63
2021/11/16 07:45:00;;;;;;;96.10;35.33;;;;;;;;;;5104833;28;20055;-63
2021/11/16 07:47:38;;;;;;;90.45;34.10;;;;;;;;;;5127086;28;20039;-63
2021/11/16 07:50:05;;;;;;;90.82;35.42;;;;;;;;;;5126755;28;20054;-63
2021/11/16 07:52:31;;;;;;;91.32;35.90;;;;;;;;;;5127486;28;20051;-62
2021/11/16 07:54:57;;;;;;;84.93;32.90;;;;;;;;;;5126479;28;20099;-63
2021/11/16 07:57:23;;;;;;;92.38;34.92;;;;;;;;;;5120616;28;20044;-63
2021/11/16 07:59:55;;;;;;;90.10;32.85;;;;;;;;;;5117535;28;20044;-63
2021/11/16 08:02:52;;;;;;;92.20;34.55;;;;;;;;;;5115419;28;20032;-63
2021/11/16 08:08:23;;;;;;;87.20;32.35;;;;;;;;;;5118819;28;20039;-62
2021/11/16 08:10:55;;;;;;;97.28;36.10;;;;;;;;;;5114535;28;20067;-63
2021/11/16 08:13:29;;;;;;;96.25;35.30;;;;;;;;;;5118298;28;20065;-63
2021/11/16 08:16:09;;;;;;;108.50;35.75;;;;;;;;;;5116979;28;20036;-63
2021/11/16 08:18:45;;;;;;;100.95;36.15;;;;;;;;;;5111009;28;20052;-62
2021/11/16 08:21:12;;;;;;;101.28;36.08;;;;;;;;;;5113449;28;20040;-63
2021/11/16 08:23:46;;;;;;;101.95;36.53;;;;;;;;;;5087565;28;20094;-62
2021/11/16 08:26:12;;;;;;;104.55;36.55;;;;;;;;;;5118878;28;20039;-63
2021/11/16 08:28:39;;;;;;;108.15;38.17;;;;;;;;;;5113355;28;20048;-65
2021/11/16 08:31:05;;;;;;;106.18;35.60;;;;;;;;;;5111922;28;20044;-73
2021/11/16 08:33:31;;;;;;;111.93;37.47;;;;;;;;;;5098908;28;20488;-66
2021/11/16 08:35:57;;;;;;;111.47;40.03;;;;;;;;;;5095589;28;20048;-69
2021/11/16 08:38:23;;;;;;;109.85;38.00;;;;;;;;;;5115309;28;20065;-68
2021/11/16 08:40:57;;;;;;;94.63;35.90;;;;;;;;;;5099234;28;20043;-66
2021/11/16 08:43:35;;;;;;;105.53;36.55;;;;;;;;;;5098639;28;20055;-76
2021/11/16 08:46:03;;;;;;;101.82;38.45;;;;;;;;;;5100919;28;20051;-67
2021/11/16 08:48:29;;;;;;;103.50;36.08;;;;;;;;;;5115920;28;20060;-67
2021/11/16 08:50:58;;;;;;;90.55;33.78;;;;;;;;;;5115207;28;20052;-68
2021/11/16 08:53:29;;;;;;;104.78;39.20;;;;;;;;;;5116744;28;20039;-68
2021/11/16 08:55:56;;;;;;;103.22;37.53;;;;;;;;;;5108616;28;20501;-68
2021/11/16 08:58:25;;;;;;;102.88;36.72;;;;;;;;;;5112018;28;20036;-67
2021/11/16 09:00:52;;;;;;;106.40;38.72;;;;;;;;;;5101064;28;20067;-68
2021/11/16 09:03:24;;;;;;;111.22;39.90;;;;;;;;;;5120387;28;20047;-67
2021/11/16 09:05:51;;;;;;;108.70;37.40;;;;;;;;;;5117899;28;20099;-68
2021/11/16 09:08:21;;;;;;;111.38;39.92;;;;;;;;;;5116994;28;20035;-68
2021/11/16 09:10:50;;;;;;;109.32;39.85;;;;;;;;;;5104419;28;20048;-68
2021/11/16 09:13:17;;;;;;;112.10;39.33;;;;;;;;;;5111206;28;20622;-68
2021/11/16 09:15:43;;;;;;;107.90;40.67;;;;;;;;;;5107704;28;20040;-68
2021/11/16 09:18:13;;;;;;;111.07;40.78;;;;;;;;;;5113730;28;20446;-71
2021/11/16 09:20:40;;;;;;;117.03;41.15;;;;;;;;;;5113728;28;20046;-68
2021/11/16 09:23:06;;;;;;;116.00;42.42;;;;;;;;;;5112843;28;20636;-67
2021/11/16 09:25:35;;;;;;;113.85;40.88;;;;;;;;;;5092652;28;20217;-67
2021/11/16 09:28:12;;;;;;;114.70;42.80;;;;;;;;;;5114724;28;20515;-68
2021/11/16 09:30:40;;;;;;;119.57;41.42;;;;;;;;;;5113008;28;20229;-67
2021/11/16 09:33:13;;;;;;;119.63;41.45;;;;;;;;;;5099047;28;20078;-67
2021/11/16 09:35:43;;;;;;;104.45;36.60;;;;;;;;;;5098258;28;20036;-67
2021/11/16 09:38:09;;;;;;;115.68;38.58;;;;;;;;;;5096165;28;20050;-68
2021/11/16 09:40:36;;;;;;;105.60;36.70;;;;;;;;;;5097752;28;20079;-67
2021/11/16 09:43:03;;;;;;;103.35;36.75;;;;;;;;;;5114846;28;20074;-72
2021/11/16 09:45:30;;;;;;;94.80;34.60;;;;;;;;;;5097769;28;20078;-68
2021/11/16 09:47:57;;;;;;;101.93;37.60;;;;;;;;;;5100041;28;20088;-70
2021/11/16 09:50:25;;;;;;;102.95;37.97;;;;;;;;;;5078207;28;20044;-69
2021/11/16 09:52:52;;;;;;;102.63;37.70;;;;;;;;;;5116786;28;20054;-67
2021/11/16 09:55:20;;;;;;;101.32;37.05;;;;;;;;;;5097566;28;20078;-67
2021/11/16 09:57:56;;;;;;;99.65;37.03;;;;;;;;;;5100439;28;20051;-66
2021/11/16 10:00:33;;;;;;;110.20;38.83;;;;;;;;;;5098579;28;20043;-66
2021/11/16 10:03:02;;;;;;;99.00;34.72;;;;;;;;;;5116613;28;20063;-66
2021/11/16 10:05:29;;;;;;;106.35;36.95;;;;;;;;;;5114543;28;20040;-66
2021/11/16 10:08:00;;;;;;;97.82;33.95;;;;;;;;;;5098333;28;20075;-66
2021/11/16 10:10:27;;;;;;;93.88;35.00;;;;;;;;;;5106698;28;20031;-68
2021/11/16 10:12:55;;;;;;;91.30;32.13;;;;;;;;;;5099725;28;20043;-66
2021/11/16 10:15:23;;;;;;;82.82;31.42;;;;;;;;;;5117802;28;20106;-68
2021/11/16 10:17:50;;;;;;;87.00;33.08;;;;;;;;;;5094267;28;20376;-77
2021/11/16 10:20:17;;;;;;;86.22;30.45;;;;;;;;;;5113229;28;20097;-69
2021/11/16 10:22:47;;;;;;;81.65;31.42;;;;;;;;;;5118447;28;20058;-68
2021/11/16 10:25:14;;;;;;;86.55;31.27;;;;;;;;;;5113503;28;20043;-72
2021/11/16 10:27:41;;;;;;;94.25;31.23;;;;;;;;;;5109306;28;20069;-72
2021/11/16 10:30:10;;;;;;;78.97;30.45;;;;;;;;;;5109963;28;20044;-71
2021/11/16 10:32:37;;;;;;;86.18;31.63;;;;;;;;;;5113019;28;20044;-69
2021/11/16 10:35:10;;;;;;;86.75;30.35;;;;;;;;;;5109653;28;20545;-70
2021/11/16 10:37:45;;;;;;;92.53;31.42;;;;;;;;;;5123366;28;20411;-64
2021/11/16 10:40:12;;;;;;;80.60;30.85;;;;;;;;;;5102530;28;20148;-65
2021/11/16 10:42:45;;;;;;;85.82;30.80;;;;;;;;;;5093472;28;20047;-70
2021/11/16 10:45:16;;;;;;;86.78;30.10;;;;;;;;;;5113459;28;20075;-70
2021/11/16 10:47:44;;;;;;;82.07;31.17;;;;;;;;;;5121581;28;20514;-67
2021/11/16 10:50:12;;;;;;;81.07;30.55;;;;;;;;;;5112882;28;20047;-67
2021/11/16 10:52:38;;;;;;;83.80;30.48;;;;;;;;;;5118948;28;20242;-68
2021/11/16 10:55:05;;;;;;;85.38;32.00;;;;;;;;;;5113726;28;20048;-63
2021/11/16 10:57:50;;;;;;;85.32;29.40;;;;;;;;;;5123065;28;20061;-65
2021/11/16 11:00:17;;;;;;;86.72;31.73;;;;;;;;;;5114757;28;20043;-66
2021/11/16 11:02:43;;;;;;;87.50;29.60;;;;;;;;;;5122395;28;20040;-65
2021/11/16 11:05:09;;;;;;;78.93;27.95;;;;;;;;;;5117449;28;20502;-65
2021/11/16 11:07:37;;;;;;;83.78;28.95;;;;;;;;;;5115273;28;20069;-65
2021/11/16 11:10:03;;;;;;;84.93;28.38;;;;;;;;;;5099317;28;20054;-73
2021/11/16 11:12:29;;;;;;;71.45;26.38;;;;;;;;;;5114259;28;20111;-68
2021/11/16 11:14:55;;;;;;;76.72;27.13;;;;;;;;;;5100448;28;20044;-69
2021/11/16 11:17:32;;;;;;;76.63;27.98;;;;;;;;;;5102934;28;20062;-72
2021/11/16 11:20:06;;;;;;;79.95;26.55;;;;;;;;;;5122144;28;20407;-64
2021/11/16 11:22:40;;;;;;;75.85;28.05;;;;;;;;;;5118352;28;20047;-68
2021/11/16 11:25:10;;;;;;;86.32;29.63;;;;;;;;;;5099292;28;20130;-70
2021/11/16 11:27:55;;;;;;;82.95;29.50;;;;;;;;;;5096160;28;20043;-77
2021/11/16 11:30:21;;;;;;;75.60;29.33;;;;;;;;;;5097389;28;20051;-72
2021/11/16 11:32:49;;;;;;;77.78;28.80;;;;;;;;;;5116030;28;20032;-67
2021/11/16 11:35:17;;;;;;;81.07;28.63;;;;;;;;;;5113511;28;20040;-63
2021/11/16 11:37:44;;;;;;;68.28;25.15;;;;;;;;;;5122931;28;20051;-66
2021/11/16 11:40:11;;;;;;;77.50;27.80;;;;;;;;;;5095467;28;20046;-69
2021/11/16 11:42:47;;;;;;;77.25;28.45;;;;;;;;;;5100235;28;20051;-66
2021/11/16 11:45:20;;;;;;;73.07;27.83;;;;;;;;;;5120442;28;20040;-68
2021/11/16 11:47:47;;;;;;;72.45;26.55;;;;;;;;;;5119900;28;20103;-67
2021/11/16 11:50:19;;;;;;;70.97;25.92;;;;;;;;;;5114879;28;20070;-73
2021/11/16 11:52:46;;;;;;;75.32;26.83;;;;;;;;;;5099116;28;20058;-64
2021/11/16 11:55:12;;;;;;;80.78;27.55;;;;;;;;;;5111664;28;20041;-67
2021/11/16 11:57:39;;;;;;;71.93;27.38;;;;;;;;;;5106027;28;20043;-65
2021/11/16 12:00:07;;;;;;;81.95;30.48;;;;;;;;;;5109802;28;20047;-63
2021/11/16 12:02:33;;;;;;;80.38;29.65;;;;;;;;;;5113785;28;20095;-63
2021/11/16 12:05:00;;;;;;;77.50;29.27;;;;;;;;;;5116515;28;20062;-63
2021/11/16 12:07:28;;;;;;;73.25;25.13;;;;;;;;;;5117733;28;20036;-62
2021/11/16 12:09:54;;;;;;;69.22;25.90;;;;;;;;;;5101981;28;20041;-65
2021/11/16 12:12:21;;;;;;;79.70;26.52;;;;;;;;;;5119331;28;20066;-63
2021/11/16 12:14:50;;;;;;;82.75;28.63;;;;;;;;;;5091643;28;20043;-67
2021/11/16 12:17:23;;;;;;;64.32;25.70;;;;;;;;;;5114382;28;20100;-66
2021/11/16 12:19:52;;;;;;;61.90;24.27;;;;;;;;;;5099589;28;20499;-66
2021/11/16 12:22:23;;;;;;;62.58;22.77;;;;;;;;;;5122116;28;20044;-66
2021/11/16 12:24:51;;;;;;;62.47;22.27;;;;;;;;;;5096879;28;20089;-66
2021/11/16 12:27:19;;;;;;;60.38;21.88;;;;;;;;;;5117376;28;20046;-66
2021/11/16 12:29:46;;;;;;;56.38;22.45;;;;;;;;;;5123479;28;20044;-66
2021/11/16 12:32:19;;;;;;;59.42;21.95;;;;;;;;;;5111161;28;20051;-66
2021/11/16 12:34:50;;;;;;;49.25;20.17;;;;;;;;;;5111821;28;20160;-66
2021/11/16 12:37:33;;;;;;;49.65;18.48;;;;;;;;;;5121952;28;20046;-66
2021/11/16 12:40:01;;;;;;;48.85;19.50;;;;;;;;;;5119370;28;20050;-66
2021/11/16 12:42:27;;;;;;;56.22;20.92;;;;;;;;;;5115793;28;20040;-66
2021/11/16 12:44:58;;;;;;;50.88;18.35;;;;;;;;;;5100702;28;20497;-65
2021/11/16 12:47:25;;;;;;;45.47;19.38;;;;;;;;;;5115337;28;20047;-66
2021/11/16 12:49:53;;;;;;;47.58;18.95;;;;;;;;;;5103108;28;20035;-66
2021/11/16 12:52:19;;;;;;;;;;;;;;;;;;5095673;28;20416;-66
2021/11/16 12:54:45;;;;;;;60.42;22.27;;;;;;;;;;5090839;28;19923;-67
2021/11/16 12:57:33;;;;;;;63.13;21.88;;;;;;;;;;5095840;28;20047;-74
2021/11/16 13:00:00;;;;;;;58.42;21.77;;;;;;;;;;5111037;28;20066;-68
2021/11/16 13:02:31;;;;;;;72.75;22.80;;;;;;;;;;5117583;28;20039;-70
2021/11/16 13:05:17;;;;;;;63.97;24.05;;;;;;;;;;5096493;28;20047;-68
2021/11/16 13:07:53;;;;;;;64.75;23.83;;;;;;;;;;5093932;28;20079;-68
2021/11/16 13:10:21;;;;;;;64.65;22.70;;;;;;;;;;5115483;28;20040;-67
2021/11/16 13:12:49;;;;;;;57.47;22.08;;;;;;;;;;5096389;28;20079;-69
2021/11/16 13:15:24;;;;;;;65.93;24.52;;;;;;;;;;5084948;28;20040;-70
2021/11/16 13:17:56;;;;;;;65.22;23.23;;;;;;;;;;5098089;28;20040;-68
2021/11/16 13:20:32;;;;;;;62.72;22.60;;;;;;;;;;5114995;28;20050;-70
2021/11/16 13:23:01;;;;;;;63.92;23.17;;;;;;;;;;5097961;28;20044;-70
2021/11/16 13:25:45;;;;;;;52.33;20.52;;;;;;;;;;5097258;28;20095;-70
2021/11/16 13:28:43;;;;;;;59.70;20.80;;;;;;;;;;5100782;28;20048;-70
2021/11/16 13:31:10;;;;;;;53.95;20.83;;;;;;;;;;5115399;28;20130;-67
2021/11/16 13:33:47;;;;;;;66.07;22.55;;;;;;;;;;5096380;28;20036;-63
2021/11/16 13:36:23;;;;;;;58.05;21.48;;;;;;;;;;5113594;28;20062;-68
2021/11/16 13:38:55;;;;;;;52.97;19.27;;;;;;;;;;5111381;28;20575;-67
2021/11/16 13:41:40;;;;;;;53.38;20.55;;;;;;;;;;5091616;28;20043;-67
2021/11/16 13:44:10;;;;;;;57.95;20.10;;;;;;;;;;5109467;28;20107;-65
2021/11/16 13:46:37;;;;;;;58.83;21.48;;;;;;;;;;5093767;28;20036;-67
2021/11/16 13:49:04;;;;;;;57.10;21.52;;;;;;;;;;5116510;28;20066;-67
2021/11/16 13:51:30;;;;;;;64.28;21.45;;;;;;;;;;5111915;28;20044;-66
2021/11/16 13:53:57;;;;;;;52.30;19.95;;;;;;;;;;5078442;28;20040;-69
2021/11/16 13:56:23;;;;;;;56.78;24.10;;;;;;;;;;5099835;28;20048;-68
2021/11/16 13:58:49;;;;;;;66.30;22.90;;;;;;;;;;5114540;28;20427;-67
2021/11/16 14:01:16;;;;;;;59.50;22.15;;;;;;;;;;5113652;28;20052;-69
2021/11/16 14:03:42;;;;;;;58.83;21.08;;;;;;;;;;5115448;28;20040;-68
2021/11/16 14:06:08;;;;;;;54.20;20.08;;;;;;;;;;5097707;28;20063;-73
2021/11/16 14:08:38;;;;;;;57.72;20.40;;;;;;;;;;5091407;28;20403;-73
2021/11/16 14:11:06;;;;;;;65.47;22.65;;;;;;;;;;5118920;28;20054;-76
2021/11/16 14:13:33;;;;;;;;;;;;;;;;;;5097727;28;20051;-74
2021/11/16 14:16:04;;;;;;;55.78;21.40;;;;;;;;;;5094404;28;19928;-74
2021/11/16 14:18:30;;;;;;;66.50;22.70;;;;;;;;;;5101262;28;20075;-74
2021/11/16 14:21:04;;;;;;;52.35;19.10;;;;;;;;;;5113628;28;20047;-74
2021/11/16 14:23:42;;;;;;;60.25;20.27;;;;;;;;;;5110540;28;20040;-63
2021/11/16 14:26:18;;;;;;;56.22;19.20;;;;;;;;;;5113705;28;20080;-68
2021/11/16 14:28:45;;;;;;;44.35;16.65;;;;;;;;;;5117740;28;20039;-69
2021/11/16 14:31:14;;;;;;;47.90;17.75;;;;;;;;;;5093542;28;20043;-69
2021/11/16 14:33:41;;;;;;;45.58;16.77;;;;;;;;;;5093338;28;20104;-64
2021/11/16 14:36:07;;;;;;;40.65;15.65;;;;;;;;;;5112152;28;20079;-66
2021/11/16 14:38:34;;;;;;;45.03;17.02;;;;;;;;;;5111847;28;20089;-66